East Rupert, Vermont
Current Conditions -  °F | °C
As of 12:35 PM on Thursday 23 Oct 2014 (Local Time) from KRUT Reporting Station
Overcast Overcast  
Wind Chill: 38°   Ceiling: 400
Heat Index: 43°   Visibility: 10mi
Dew Point: 39°   Wind: 8mph
Humidity: 87%   Direction: 330°NNW
Pressure: 29.84"   Gusts: NA
Location:  43.358°N, 73.1349°W
Report Text: KRUT 231635Z 33007KT 10SM OVC004 06/04 A2984 RMK AO1
Loading
Personal Weather Stations






























Interactive Weather Map
Tropical Storm Tracking
New forecast layout! Learn more

10-Day Weather Forecast

Advertisements
Track Severe Weather on mobile